Time;durP1;ratioP1;P1;durP2;ratioP2;P2;SDS_P1;SDS_P2;PMS_P1;PMS_P2;Temp;Humidity;BMP_temperature;BMP_pressure;BME280_temperature;BME280_humidity;BME280_pressure;Samples;Min_cycle;Max_cycle;Signal;HPM_P1;HPM_P2
2023/03/21 00:01:38;;;;;;;94.25;50.05;;;8.40;99.90;;;;;;5094366;28;20119;-76
2023/03/21 00:04:04;;;;;;;95.78;52.90;;;8.40;99.90;;;;;;5094347;28;20119;-76
2023/03/21 00:06:31;;;;;;;93.20;46.80;;;8.40;99.90;;;;;;5094384;28;20497;-76
2023/03/21 00:08:57;;;;;;;102.35;51.05;;;8.40;99.90;;;;;;5094196;28;20156;-76
2023/03/21 00:11:23;;;;;;;87.15;47.50;;;8.30;99.90;;;;;;5094352;28;20075;-76
2023/03/21 00:13:49;;;;;;;97.85;48.80;;;8.30;99.90;;;;;;5094125;28;20230;-76
2023/03/21 00:16:17;;;;;;;83.82;44.55;;;8.20;99.90;;;;;;5094292;28;20032;-76
2023/03/21 00:18:46;;;;;;;81.82;45.20;;;8.30;99.90;;;;;;5094258;28;20040;-76
2023/03/21 00:21:15;;;;;;;92.03;48.03;;;8.30;99.90;;;;;;5094240;28;20032;-76
2023/03/21 00:23:42;;;;;;;99.18;51.58;;;8.20;99.90;;;;;;5094204;28;20024;-76
2023/03/21 00:26:09;;;;;;;166.43;82.10;;;8.20;99.90;;;;;;5094265;28;20093;-76
2023/03/21 00:28:44;;;;;;;160.80;84.28;;;8.20;99.90;;;;;;5094172;28;20024;-76
2023/03/21 00:31:10;;;;;;;129.00;66.80;;;8.20;99.90;;;;;;5094148;28;20466;-76
2023/03/21 00:33:37;;;;;;;127.45;67.22;;;8.30;99.90;;;;;;5094359;28;20034;-76
2023/03/21 00:36:05;;;;;;;118.25;61.42;;;8.20;99.90;;;;;;5072453;28;20045;-76
2023/03/21 00:38:33;;;;;;;98.78;51.15;;;8.10;99.90;;;;;;5076502;28;20035;-76
2023/03/21 00:41:07;;;;;;;119.00;61.03;;;8.00;99.90;;;;;;5077773;28;20083;-76
2023/03/21 00:43:33;;;;;;;98.90;53.28;;;8.00;99.90;;;;;;5077608;28;20033;-76
2023/03/21 00:46:00;;;;;;;96.28;53.83;;;8.10;99.90;;;;;;5077592;28;20033;-77
2023/03/21 00:48:26;;;;;;;123.75;67.05;;;8.10;99.90;;;;;;5077812;28;20035;-76
2023/03/21 00:50:54;;;;;;;136.00;70.60;;;8.10;99.90;;;;;;5077538;28;20081;-77
2023/03/21 00:53:21;;;;;;;137.77;76.45;;;8.00;99.90;;;;;;5076057;28;20032;-76
2023/03/21 00:55:47;;;;;;;165.23;85.50;;;7.90;99.90;;;;;;5076109;28;20111;-76
2023/03/21 00:58:14;;;;;;;145.00;78.65;;;7.90;99.90;;;;;;5077232;28;20036;-76
2023/03/21 01:00:41;;;;;;;147.80;77.93;;;7.80;99.90;;;;;;5076063;28;20060;-76
2023/03/21 01:03:09;;;;;;;118.43;64.50;;;7.70;99.90;;;;;;5076005;28;20393;-76
2023/03/21 01:08:27;;;;;;;114.32;58.85;;;7.60;99.90;;;;;;5077147;28;20474;-76
2023/03/21 01:10:54;;;;;;;139.88;66.35;;;7.50;99.90;;;;;;5077084;28;20126;-76
2023/03/21 01:13:22;;;;;;;238.73;94.97;;;7.40;99.90;;;;;;5077211;28;20031;-76
2023/03/21 01:15:51;;;;;;;209.38;87.85;;;7.40;99.90;;;;;;5077092;28;20044;-76
2023/03/21 01:18:20;;;;;;;228.98;96.75;;;7.30;99.90;;;;;;5077076;28;20474;-76
2023/03/21 01:20:46;;;;;;;164.23;76.07;;;7.30;99.90;;;;;;5075633;28;20035;-76
2023/03/21 01:23:14;;;;;;;182.65;83.55;;;7.20;99.90;;;;;;5076839;28;20049;-76
2023/03/21 01:25:41;;;;;;;165.70;78.80;;;7.20;99.90;;;;;;5076837;28;20040;-76
2023/03/21 01:28:07;;;;;;;375.80;144.00;;;7.10;99.90;;;;;;5076763;28;20040;-76
2023/03/21 01:30:34;;;;;;;295.67;125.53;;;7.10;99.90;;;;;;5076972;28;20040;-76
2023/03/21 01:33:02;;;;;;;257.40;118.05;;;7.10;99.90;;;;;;5076838;28;20033;-75
2023/03/21 01:35:28;;;;;;;209.18;100.95;;;7.10;99.90;;;;;;5075076;28;20040;-75
2023/03/21 01:37:53;;;;;;;204.02;99.57;;;7.10;99.90;;;;;;5075353;28;20390;-75
2023/03/21 01:40:25;;;;;;;186.75;91.65;;;7.10;99.90;;;;;;5075332;28;20092;-75
2023/03/21 01:42:59;;;;;;;173.38;87.63;;;7.10;99.90;;;;;;5075327;28;20166;-75
2023/03/21 01:46:03;;;;;;;173.13;88.68;;;7.00;99.90;;;;;;5092211;28;20040;-75
2023/03/21 01:48:57;;;;;;;165.52;82.90;;;7.00;99.90;;;;;;5076334;28;20174;-75
2023/03/21 01:51:26;;;;;;;186.30;85.97;;;6.90;99.90;;;;;;5076548;28;20489;-75
2023/03/21 01:53:56;;;;;;;176.00;84.38;;;6.90;99.90;;;;;;5074971;28;20444;-75
2023/03/21 01:56:31;;;;;;;206.32;93.70;;;6.90;99.90;;;;;;5075114;28;20489;-75
2023/03/21 01:59:27;;;;;;;203.35;91.32;;;6.90;99.90;;;;;;5075866;28;20033;-76
2023/03/21 02:02:16;;;;;;;208.70;90.20;;;6.80;99.90;;;;;;5075980;28;20085;-75
2023/03/21 02:04:58;;;;;;;206.85;91.25;;;6.70;99.90;;;;;;5074532;28;20036;-75
2023/03/21 02:07:36;;;;;;;222.52;99.13;;;6.70;99.90;;;;;;5074738;28;20043;-75
2023/03/21 02:10:08;;;;;;;201.02;89.38;;;6.60;99.90;;;;;;5075203;28;20039;-75
2023/03/21 02:12:36;;;;;;;173.70;84.13;;;6.60;99.90;;;;;;5075010;28;20032;-75
2023/03/21 02:15:03;;;;;;;154.43;76.75;;;6.50;99.90;;;;;;5075186;28;20462;-75
2023/03/21 02:18:05;;;;;;;158.77;81.75;;;6.40;99.90;;;;;;5075241;28;20090;-75
2023/03/21 02:21:16;;;;;;;153.07;79.63;;;6.40;99.90;;;;;;5075193;28;20025;-75
2023/03/21 02:23:51;;;;;;;136.70;72.97;;;6.40;99.90;;;;;;5075033;28;20063;-75
2023/03/21 02:26:38;;;;;;;169.32;75.95;;;6.40;99.90;;;;;;5075279;28;20025;-75
2023/03/21 02:29:29;;;;;;;149.38;73.05;;;6.30;99.90;;;;;;5075122;28;20078;-75
2023/03/21 02:32:22;;;;;;;180.75;82.28;;;6.20;99.90;;;;;;5076354;28;20099;-75
2023/03/21 02:34:52;;;;;;;182.18;83.95;;;6.30;99.90;;;;;;5074617;28;20102;-75
2023/03/21 02:37:28;;;;;;;174.93;82.50;;;6.30;99.90;;;;;;5074872;28;20028;-75
2023/03/21 02:40:13;;;;;;;162.45;76.97;;;6.30;99.90;;;;;;5076261;28;20035;-75
2023/03/21 02:43:10;;;;;;;138.38;70.15;;;6.20;99.90;;;;;;5074890;28;20021;-75
2023/03/21 02:45:54;;;;;;;163.90;77.32;;;6.20;99.90;;;;;;5074796;28;20040;-75
2023/03/21 02:48:29;;;;;;;237.60;98.47;;;6.10;99.90;;;;;;5076207;28;20471;-75
2023/03/21 02:50:59;;;;;;;217.25;94.97;;;6.10;99.90;;;;;;5074701;28;20043;-75
2023/03/21 02:53:31;;;;;;;212.93;94.50;;;6.10;99.90;;;;;;5074625;28;20032;-75
2023/03/21 02:55:59;;;;;;;185.88;83.78;;;6.00;99.90;;;;;;5074792;28;20181;-75
2023/03/21 02:58:27;;;;;;;181.48;83.32;;;6.00;99.90;;;;;;5074565;28;20031;-75
2023/03/21 03:00:57;;;;;;;168.48;80.13;;;5.80;99.90;;;;;;5073876;28;20436;-75
2023/03/21 03:03:46;;;;;;;140.25;70.38;;;5.80;99.90;;;;;;5091192;28;20467;-75
2023/03/21 03:06:27;;;;;;;139.95;70.82;;;5.80;99.90;;;;;;5073700;28;20111;-75
2023/03/21 03:08:59;;;;;;;132.55;68.03;;;5.80;99.90;;;;;;5074751;28;20024;-75
2023/03/21 03:11:41;;;;;;;139.48;69.00;;;5.80;99.90;;;;;;5073608;28;20033;-75
2023/03/21 03:14:43;;;;;;;136.98;69.13;;;5.60;99.90;;;;;;5074434;28;20407;-75
2023/03/21 03:17:38;;;;;;;145.73;72.65;;;5.70;99.90;;;;;;5064564;28;20029;-75
2023/03/21 03:20:21;;;;;;;148.40;76.82;;;5.70;99.90;;;;;;5074649;28;20519;-75
2023/03/21 03:23:44;;;;;;;161.75;81.90;;;5.80;99.90;;;;;;5074970;28;20027;-75
2023/03/21 03:26:15;;;;;;;146.65;71.72;;;5.70;99.90;;;;;;5062286;28;20116;-75
2023/03/21 03:28:47;;;;;;;140.30;69.78;;;5.80;99.90;;;;;;5073166;28;20064;-75
2023/03/21 03:31:24;;;;;;;134.30;71.13;;;5.80;99.90;;;;;;5073614;28;20032;-75
2023/03/21 03:33:57;;;;;;;139.87;68.87;;;5.90;99.90;;;;;;5072984;28;20036;-75
2023/03/21 03:36:33;;;;;;;119.43;63.53;;;6.00;99.90;;;;;;5073018;28;20504;-75
2023/03/21 03:39:08;;;;;;;115.78;60.10;;;6.00;99.90;;;;;;5073283;28;20025;-75
2023/03/21 03:41:46;;;;;;;;;;;5.90;99.90;;;;;;5073683;28;20474;-75
2023/03/21 03:44:12;;;;;;;130.90;65.97;;;5.90;99.90;;;;;;5073078;28;20408;-74
2023/03/21 03:47:06;;;;;;;125.30;66.70;;;6.00;99.90;;;;;;5073165;28;20036;-74
2023/03/21 03:49:43;;;;;;;128.35;66.50;;;6.00;99.90;;;;;;5073069;28;20028;-74
2023/03/21 03:52:17;;;;;;;127.65;66.78;;;6.10;99.90;;;;;;5073172;28;20061;-74
2023/03/21 03:54:50;;;;;;;122.13;61.72;;;6.10;99.90;;;;;;5072925;28;20036;-74
2023/03/21 03:57:19;;;;;;;111.68;59.55;;;6.20;99.90;;;;;;5072930;28;20501;-75
2023/03/21 03:59:45;;;;;;;115.70;60.35;;;6.20;99.90;;;;;;5072977;28;20386;-74
2023/03/21 04:02:31;;;;;;;119.35;60.67;;;6.20;99.90;;;;;;5074154;28;20039;-74
2023/03/21 04:05:00;;;;;;;107.00;57.92;;;6.30;99.90;;;;;;5089515;28;20386;-74
2023/03/21 04:07:27;;;;;;;126.97;67.68;;;6.30;99.90;;;;;;5072944;28;20379;-74
2023/03/21 04:09:57;;;;;;;;;;;6.30;99.90;;;;;;5073149;28;20024;-74
2023/03/21 04:12:24;;;;;;;116.03;64.93;;;6.40;99.90;;;;;;5074826;28;19954;-74
2023/03/21 04:15:09;;;;;;;112.03;62.45;;;6.50;99.90;;;;;;5078093;28;20075;-74
2023/03/21 04:17:38;;;;;;;122.47;67.38;;;6.70;99.90;;;;;;5076752;28;20035;-74
2023/03/21 04:20:06;;;;;;;115.47;64.60;;;6.80;99.90;;;;;;5076979;28;20055;-74
2023/03/21 04:22:33;;;;;;;119.57;64.38;;;6.90;99.90;;;;;;5078260;28;20067;-74
2023/03/21 04:25:00;;;;;;;124.40;62.25;;;7.00;99.90;;;;;;5076636;28;20044;-74
2023/03/21 04:27:27;;;;;;;119.88;58.20;;;7.00;99.90;;;;;;5059912;28;20398;-74
2023/03/21 04:30:19;;;;;;;116.65;60.28;;;7.10;99.90;;;;;;5077270;28;20386;-74
2023/03/21 04:32:55;;;;;;;96.63;54.08;;;7.10;99.90;;;;;;5059665;28;20382;-74
2023/03/21 04:35:24;;;;;;;96.45;52.10;;;7.20;99.90;;;;;;5073925;28;20045;-74
2023/03/21 04:37:50;;;;;;;95.35;52.72;;;7.20;99.90;;;;;;5077707;28;20107;-74
2023/03/21 04:40:17;;;;;;;93.10;49.55;;;7.20;99.90;;;;;;5059641;28;20486;-74
2023/03/21 04:42:44;;;;;;;90.53;50.47;;;7.20;99.90;;;;;;5059630;28;20021;-74
2023/03/21 04:45:11;;;;;;;86.47;49.03;;;7.20;99.90;;;;;;5059638;28;20131;-74
2023/03/21 04:47:39;;;;;;;77.05;45.70;;;7.10;99.90;;;;;;5077503;28;20029;-74
2023/03/21 04:50:06;;;;;;;84.55;46.65;;;7.20;99.90;;;;;;5077621;28;20036;-74
2023/03/21 04:52:32;;;;;;;80.57;45.88;;;7.30;99.90;;;;;;5059571;28;20050;-74
2023/03/21 04:54:58;;;;;;;97.70;50.20;;;7.20;99.90;;;;;;5077184;28;20527;-74
2023/03/21 04:57:24;;;;;;;104.78;55.03;;;7.20;99.90;;;;;;5059554;28;20029;-74
2023/03/21 04:59:50;;;;;;;95.53;50.97;;;7.20;99.90;;;;;;5059494;28;20029;-74
2023/03/21 05:02:16;;;;;;;112.75;56.60;;;7.40;99.90;;;;;;5093033;28;20029;-74
2023/03/21 05:04:42;;;;;;;115.07;59.53;;;7.40;99.90;;;;;;5077095;28;20478;-74
2023/03/21 05:07:08;;;;;;;116.47;59.85;;;7.40;99.90;;;;;;5058967;28;20029;-74
2023/03/21 05:09:34;;;;;;;168.20;71.30;;;7.40;99.90;;;;;;5058993;28;20033;-75
2023/03/21 05:12:02;;;;;;;201.05;82.55;;;7.50;99.90;;;;;;5059300;28;20066;-74
2023/03/21 05:14:30;;;;;;;259.63;97.30;;;7.60;99.90;;;;;;5058479;28;20167;-74
2023/03/21 05:17:03;;;;;;;151.90;62.97;;;7.80;99.90;;;;;;5076923;28;20085;-74
2023/03/21 05:19:34;;;;;;;130.50;56.97;;;7.80;99.90;;;;;;5059152;28;20125;-74
2023/03/21 05:22:09;;;;;;;146.80;61.70;;;7.80;99.90;;;;;;5059031;28;20032;-74
2023/03/21 05:24:38;;;;;;;119.47;56.42;;;7.90;99.90;;;;;;5058312;28;20028;-74
2023/03/21 05:27:07;;;;;;;108.85;52.97;;;7.90;99.90;;;;;;5059121;28;20032;-74
2023/03/21 05:29:39;;;;;;;160.98;70.55;;;8.00;99.90;;;;;;5074855;28;20028;-74
2023/03/21 05:32:07;;;;;;;292.58;110.80;;;8.00;99.90;;;;;;5058842;28;20098;-74
2023/03/21 05:34:33;;;;;;;290.10;111.07;;;8.10;99.90;;;;;;5054795;28;20064;-73
2023/03/21 05:37:00;;;;;;;252.13;100.07;;;8.10;99.90;;;;;;5043483;28;20051;-70
2023/03/21 05:39:37;;;;;;;209.73;85.40;;;8.10;99.90;;;;;;5039917;28;20037;-73
2023/03/21 05:42:09;;;;;;;229.50;95.63;;;8.10;99.90;;;;;;5050480;28;20137;-73
2023/03/21 05:44:36;;;;;;;179.18;77.38;;;8.20;99.90;;;;;;5047548;28;20061;-74
2023/03/21 05:47:05;;;;;;;205.70;90.53;;;8.20;99.90;;;;;;5042297;28;20033;-73
2023/03/21 05:49:40;;;;;;;184.25;82.85;;;8.30;99.90;;;;;;5056933;28;20044;-73
2023/03/21 05:52:08;;;;;;;92.88;51.92;;;8.20;99.90;;;;;;5068080;28;20059;-73
2023/03/21 05:54:34;;;;;;;99.45;48.55;;;8.30;99.90;;;;;;5031552;28;20132;-74
2023/03/21 05:57:01;;;;;;;93.93;48.88;;;8.30;99.90;;;;;;5080649;28;20044;-73
2023/03/21 05:59:47;;;;;;;135.75;66.15;;;8.50;99.90;;;;;;5064594;28;20490;-73
2023/03/21 06:02:13;;;;;;;94.85;50.88;;;8.60;99.90;;;;;;5028801;28;20052;-73
2023/03/21 06:04:40;;;;;;;83.32;46.97;;;8.70;99.90;;;;;;5059042;28;20075;-73
2023/03/21 06:07:06;;;;;;;91.00;46.97;;;8.80;99.90;;;;;;5086394;28;20512;-73
2023/03/21 06:09:33;;;;;;;82.95;44.38;;;8.80;99.90;;;;;;5069302;28;20056;-73
2023/03/21 06:12:02;;;;;;;83.05;42.55;;;8.80;99.90;;;;;;5060121;28;20135;-73
2023/03/21 06:14:51;;;;;;;86.80;43.22;;;8.80;99.90;;;;;;5052551;28;20052;-73
2023/03/21 06:17:43;;;;;;;108.10;47.45;;;8.90;99.90;;;;;;5045461;28;20048;-73
2023/03/21 06:20:12;;;;;;;97.22;48.38;;;9.00;99.90;;;;;;5067370;28;20043;-73
2023/03/21 06:22:48;;;;;;;86.72;44.65;;;9.00;99.90;;;;;;5009160;28;20073;-73
2023/03/21 06:25:14;;;;;;;78.82;43.88;;;9.10;99.90;;;;;;5025502;28;20034;-73
2023/03/21 06:27:40;;;;;;;89.60;45.13;;;9.20;99.90;;;;;;5010576;28;20411;-73
2023/03/21 06:30:07;;;;;;;104.78;49.70;;;9.30;99.90;;;;;;4978159;28;20058;-73
2023/03/21 06:32:40;;;;;;;89.47;45.90;;;9.40;99.90;;;;;;5021076;28;20093;-73
2023/03/21 06:35:11;;;;;;;84.95;46.15;;;9.50;99.90;;;;;;5058858;28;20417;-73
2023/03/21 06:37:38;;;;;;;77.95;42.78;;;9.70;99.90;;;;;;5019702;28;20060;-72
2023/03/21 06:40:08;;;;;;;87.85;46.95;;;9.80;99.90;;;;;;4999244;28;20480;-73
2023/03/21 06:42:35;;;;;;;92.60;48.23;;;9.90;99.90;;;;;;4955005;28;20046;-73
2023/03/21 06:45:08;;;;;;;84.32;46.53;;;10.10;99.90;;;;;;4959110;28;20049;-73
2023/03/21 06:47:34;;;;;;;83.57;44.72;;;10.10;99.90;;;;;;5026650;28;20127;-73
2023/03/21 06:50:05;;;;;;;92.55;49.97;;;10.20;99.90;;;;;;5050164;28;20060;-73
2023/03/21 06:52:33;;;;;;;;;;;10.50;99.90;;;;;;4999364;28;20094;-73
2023/03/21 06:54:59;;;;;;;111.03;52.25;;;10.60;99.90;;;;;;5029119;28;20370;-73
2023/03/21 06:57:25;;;;;;;110.72;51.72;;;10.70;99.90;;;;;;5016816;28;20106;-73
2023/03/21 06:59:51;;;;;;;99.20;50.10;;;10.60;99.90;;;;;;4983463;28;20042;-73
2023/03/21 07:02:20;;;;;;;90.28;49.47;;;10.80;99.90;;;;;;4957676;28;20472;-73
2023/03/21 07:04:56;;;;;;;94.15;49.67;;;11.00;99.90;;;;;;4981354;28;20047;-73
2023/03/21 07:07:27;;;;;;;116.90;52.90;;;10.90;99.90;;;;;;5036815;28;20855;-73
2023/03/21 07:09:57;;;;;;;93.85;49.60;;;10.90;99.90;;;;;;5052549;28;21644;-73
2023/03/21 07:12:25;;;;;;;83.80;49.42;;;10.90;99.90;;;;;;5052489;28;22357;-73
2023/03/21 07:15:10;;;;;;;109.60;53.58;;;11.10;99.90;;;;;;5005554;28;23711;-72
2023/03/21 07:17:38;;;;;;;94.85;51.10;;;11.40;99.90;;;;;;5048433;28;23725;-73
2023/03/21 07:20:07;;;;;;;99.63;51.72;;;11.60;99.90;;;;;;5012657;28;25861;-73
2023/03/21 07:22:34;;;;;;;113.80;56.42;;;11.80;99.90;;;;;;4982203;28;26259;-74
2023/03/21 07:25:00;;;;;;;116.45;58.25;;;11.70;99.90;;;;;;4982514;28;24760;-73
2023/03/21 07:27:26;;;;;;;113.63;57.00;;;11.90;99.90;;;;;;4972919;28;28065;-73
2023/03/21 07:29:52;;;;;;;108.05;56.33;;;12.00;99.90;;;;;;5027507;28;28116;-74
2023/03/21 07:32:18;;;;;;;113.00;55.78;;;12.20;99.90;;;;;;5053962;28;24669;-75
2023/03/21 07:34:44;;;;;;;99.47;52.85;;;12.20;99.90;;;;;;5026952;28;30101;-74
2023/03/21 07:37:10;;;;;;;96.27;53.03;;;12.20;99.90;;;;;;4849736;28;1297221;-74
2023/03/21 07:39:36;;;;;;;87.80;50.88;;;12.20;99.90;;;;;;4999911;28;22533;-74
2023/03/21 07:42:02;;;;;;;94.25;51.92;;;12.20;99.90;;;;;;5019753;28;22312;-74
2023/03/21 07:44:37;;;;;;;87.20;49.53;;;12.30;99.90;;;;;;5006617;28;22001;-74
2023/03/21 07:47:04;;;;;;;88.00;48.80;;;12.30;99.90;;;;;;4994071;28;21818;-74
2023/03/21 07:49:31;;;;;;;97.28;48.05;;;12.30;99.90;;;;;;4972357;28;20477;-74
2023/03/21 07:51:58;;;;;;;80.57;46.33;;;12.40;99.90;;;;;;5030027;28;20045;-74
2023/03/21 07:54:25;;;;;;;95.43;49.03;;;12.40;99.90;;;;;;4956626;28;20053;-74
2023/03/21 07:56:51;;;;;;;89.95;44.30;;;12.40;99.90;;;;;;5003220;28;20050;-74
2023/03/21 07:59:16;;;;;;;88.82;44.15;;;12.50;99.90;;;;;;5001118;28;20053;-74
2023/03/21 08:01:42;;;;;;;68.47;38.55;;;12.50;99.90;;;;;;5006507;28;20048;-74
2023/03/21 08:04:08;;;;;;;68.85;40.63;;;12.50;99.90;;;;;;4984087;28;20401;-74
2023/03/21 08:06:34;;;;;;;78.55;41.53;;;12.50;99.90;;;;;;5001550;28;20049;-74
2023/03/21 08:09:02;;;;;;;102.15;45.03;;;12.50;99.90;;;;;;4994451;28;20388;-70
2023/03/21 08:11:31;;;;;;;71.05;38.15;;;12.50;99.90;;;;;;4953786;28;20154;-74
2023/03/21 08:13:58;;;;;;;65.57;39.05;;;12.60;99.90;;;;;;4917665;28;20047;-74
2023/03/21 08:16:25;;;;;;;60.88;33.63;;;13.00;99.90;;;;;;4960357;28;21780;-73
2023/03/21 08:18:51;;;;;;;59.13;34.58;;;13.50;99.90;;;;;;4812938;29;22480;-73
2023/03/21 08:21:17;;;;;;;57.88;34.55;;;14.00;99.90;;;;;;4881457;28;22138;-72
2023/03/21 08:23:44;;;;;;;60.42;33.90;;;14.50;99.90;;;;;;4912064;28;23724;-72
2023/03/21 08:26:10;;;;;;;67.55;36.03;;;15.10;99.90;;;;;;4942595;28;35130;-72
2023/03/21 08:28:38;;;;;;;42.03;24.00;;;15.60;99.90;;;;;;4972827;28;36677;-72
2023/03/21 08:31:08;;;;;;;32.90;19.00;;;16.10;99.90;;;;;;4888369;28;37570;-72
2023/03/21 08:33:35;;;;;;;27.77;15.68;;;16.40;99.90;;;;;;4857865;29;24462;-72
2023/03/21 08:36:10;;;;;;;30.00;17.70;;;17.10;99.90;;;;;;4820451;29;1262275;-72
2023/03/21 08:38:36;;;;;;;31.83;19.20;;;17.40;99.90;;;;;;4856960;29;24171;-72
2023/03/21 08:41:02;;;;;;;67.90;30.25;;;18.00;99.90;;;;;;4955870;28;22318;-72
2023/03/21 08:43:29;;;;;;;44.78;24.23;;;18.30;99.90;;;;;;4904840;28;22342;-73
2023/03/21 08:45:55;;;;;;;44.55;24.33;;;18.20;99.90;;;;;;4887859;29;20376;-72
2023/03/21 08:48:22;;;;;;;45.25;25.27;;;18.20;99.90;;;;;;4724055;28;20068;-73
2023/03/21 08:50:48;;;;;;;48.08;27.15;;;18.20;99.90;;;;;;4828588;29;20048;-73
2023/03/21 08:53:14;;;;;;;56.28;31.60;;;18.30;99.90;;;;;;4884413;29;20462;-73
2023/03/21 08:55:40;;;;;;;56.60;30.15;;;18.10;99.90;;;;;;4893125;28;20063;-74
2023/03/21 08:58:06;;;;;;;61.28;29.02;;;17.70;99.90;;;;;;4958356;28;20048;-73
2023/03/21 09:00:32;;;;;;;58.17;30.50;;;17.70;99.90;;;;;;4995050;28;20413;-74
2023/03/21 09:02:58;;;;;;;56.63;29.85;;;17.50;99.90;;;;;;5008806;28;22565;-74
2023/03/21 09:05:25;;;;;;;60.83;28.63;;;17.70;99.90;;;;;;5005030;28;22442;-74
2023/03/21 09:07:56;;;;;;;61.15;35.10;;;17.40;99.90;;;;;;4992764;28;24048;-74
2023/03/21 09:10:29;;;;;;;64.57;35.80;;;17.50;99.90;;;;;;5053255;28;24508;-74
2023/03/21 09:12:57;;;;;;;77.38;42.00;;;17.40;99.90;;;;;;5033179;28;25426;-74
2023/03/21 09:15:27;;;;;;;79.72;44.05;;;17.60;99.90;;;;;;5052402;28;27859;-74
2023/03/21 09:17:57;;;;;;;78.47;42.05;;;17.30;99.90;;;;;;5075646;28;28230;-74
2023/03/21 09:20:29;;;;;;;87.93;45.67;;;16.70;99.90;;;;;;5076653;28;28373;-74
2023/03/21 09:22:56;;;;;;;105.55;51.35;;;16.80;99.90;;;;;;5061485;28;30176;-74
2023/03/21 09:25:23;;;;;;;85.50;42.08;;;17.00;99.90;;;;;;5067494;28;30424;-75
2023/03/21 09:27:50;;;;;;;92.20;44.58;;;16.90;99.90;;;;;;5045617;27;32492;-75
2023/03/21 09:30:20;;;;;;;95.88;48.30;;;17.00;99.90;;;;;;4766787;28;1282986;-75
2023/03/21 09:32:47;;;;;;;101.13;50.33;;;17.00;99.90;;;;;;4830386;29;20042;-75
2023/03/21 09:35:17;;;;;;;99.57;48.17;;;17.10;99.90;;;;;;4712930;28;4061567;-75
2023/03/21 09:37:47;;;;;;;90.88;41.17;;;16.90;99.90;;;;;;4933123;28;28502;-74
2023/03/21 09:40:26;;;;;;;76.53;38.30;;;17.20;99.90;;;;;;4969397;28;22787;-75
2023/03/21 09:43:05;;;;;;;64.60;33.17;;;17.10;99.90;;;;;;5022903;28;20083;-75
2023/03/21 09:45:50;;;;;;;48.95;27.05;;;17.00;99.90;;;;;;4870873;28;20042;-74
2023/03/21 09:48:34;;;;;;;40.85;23.77;;;17.20;99.90;;;;;;4952550;28;20122;-76
2023/03/21 09:51:04;;;;;;;40.28;22.05;;;17.50;99.90;;;;;;5025982;28;20041;-74
2023/03/21 09:53:37;;;;;;;37.22;20.42;;;17.90;99.90;;;;;;5095783;27;20036;-75
2023/03/21 09:56:05;;;;;;;45.90;22.00;;;18.10;99.90;;;;;;5075682;28;20047;-74
2023/03/21 09:58:52;;;;;;;40.20;21.30;;;18.20;99.90;;;;;;5096563;27;20095;-75
2023/03/21 10:04:06;;;;;;;39.42;20.20;;;18.10;99.90;;;;;;5150619;27;21005;-75
2023/03/21 10:06:40;;;;;;;38.85;18.80;;;18.20;99.90;;;;;;5076179;27;1448140;-76
2023/03/21 10:09:22;;;;;;;39.50;20.67;;;18.20;99.90;;;;;;5039601;28;20613;-76
2023/03/21 10:11:52;;;;;;;39.20;20.45;;;18.30;99.90;;;;;;5048339;28;20102;-76
2023/03/21 10:14:30;;;;;;;39.70;20.47;;;18.10;99.90;;;;;;5072546;28;20036;-76
2023/03/21 10:17:27;;;;;;;36.85;20.65;;;18.00;99.90;;;;;;5060373;28;20052;-75
2023/03/21 10:20:10;;;;;;;33.88;19.60;;;18.00;99.90;;;;;;5038108;28;20044;-74
2023/03/21 10:22:37;;;;;;;34.95;19.05;;;18.00;99.90;;;;;;5047028;28;20060;-75
2023/03/21 10:25:04;;;;;;;31.58;18.50;;;18.30;99.90;;;;;;5054259;28;20025;-75
2023/03/21 10:27:32;;;;;;;33.83;18.42;;;18.30;99.90;;;;;;5047142;28;20044;-75
2023/03/21 10:29:59;;;;;;;36.42;18.83;;;18.20;99.90;;;;;;5062995;28;20035;-74
2023/03/21 10:32:26;;;;;;;33.38;17.83;;;18.50;99.90;;;;;;5063636;28;20029;-74
2023/03/21 10:34:57;;;;;;;27.38;16.52;;;18.50;99.90;;;;;;5061245;28;20470;-74
2023/03/21 10:37:25;;;;;;;26.92;15.82;;;18.60;99.90;;;;;;5061060;28;20017;-74
2023/03/21 10:39:54;;;;;;;32.90;17.52;;;18.70;99.90;;;;;;5061902;28;20377;-75
2023/03/21 10:42:32;;;;;;;32.43;18.23;;;18.40;99.90;;;;;;5070066;28;20036;-75
2023/03/21 10:44:58;;;;;;;26.73;16.17;;;18.20;99.90;;;;;;5070690;28;20489;-75
2023/03/21 10:47:32;;;;;;;35.63;17.67;;;18.10;99.90;;;;;;5070618;28;20113;-75
2023/03/21 10:50:08;;;;;;;28.40;17.75;;;18.10;99.90;;;;;;5070380;28;20025;-74
2023/03/21 10:52:36;;;;;;;35.38;18.27;;;17.90;99.90;;;;;;5060960;28;20104;-75
2023/03/21 10:55:20;;;;;;;34.22;19.17;;;17.90;99.90;;;;;;5060860;28;20032;-75
2023/03/21 10:57:46;;;;;;;29.05;17.88;;;17.80;99.90;;;;;;5065491;28;20059;-75
2023/03/21 11:00:20;;;;;;;27.05;17.02;;;17.70;99.90;;;;;;5070415;28;20028;-76
2023/03/21 11:02:52;;;;;;;27.35;17.38;;;17.50;99.90;;;;;;5066830;28;20629;-76
2023/03/21 11:05:34;;;;;;;29.55;17.80;;;17.30;99.90;;;;;;5046306;28;20044;-76
2023/03/21 11:08:05;;;;;;;30.83;16.17;;;17.10;99.90;;;;;;5070452;28;20407;-76
2023/03/21 11:10:35;;;;;;;28.33;16.05;;;17.00;99.90;;;;;;5061866;28;20025;-76
2023/03/21 11:13:06;;;;;;;35.22;16.80;;;16.90;99.90;;;;;;5052853;28;20613;-75
2023/03/21 11:15:40;;;;;;;26.15;13.95;;;16.90;99.90;;;;;;5057337;28;20418;-76
2023/03/21 11:18:22;;;;;;;30.63;14.13;;;16.80;99.90;;;;;;5057793;28;20060;-76
2023/03/21 11:21:03;;;;;;;24.63;14.38;;;16.70;99.90;;;;;;5057187;28;20474;-77
2023/03/21 11:23:32;;;;;;;27.38;15.50;;;16.70;99.90;;;;;;5056593;28;20548;-76
2023/03/21 11:26:00;;;;;;;24.70;14.20;;;16.70;99.90;;;;;;5056706;28;20031;-76
2023/03/21 11:28:35;;;;;;;22.83;11.57;;;16.70;99.90;;;;;;5056983;28;20048;-76
2023/03/21 11:31:02;;;;;;;38.80;16.00;;;16.80;99.90;;;;;;5055388;28;20466;-76
2023/03/21 11:33:44;;;;;;;81.20;19.27;;;16.70;99.90;;;;;;5054915;28;20032;-77
2023/03/21 11:36:19;;;;;;;29.15;15.02;;;16.90;99.90;;;;;;5037151;28;20034;-77
2023/03/21 11:38:51;;;;;;;30.45;15.88;;;16.90;99.90;;;;;;5036716;28;20033;-76
2023/03/21 11:41:32;;;;;;;22.90;13.63;;;16.70;99.90;;;;;;5037332;28;20049;-77
2023/03/21 11:43:59;;;;;;;27.73;16.00;;;16.60;99.90;;;;;;5045463;28;20508;-76
2023/03/21 11:46:30;;;;;;;30.77;15.00;;;16.70;99.90;;;;;;5057174;28;20036;-78
2023/03/21 11:48:57;;;;;;;;;;;16.90;99.90;;;;;;5057163;28;20065;-76
2023/03/21 11:51:44;;;;;;;36.08;15.52;;;17.00;99.90;;;;;;5055847;28;19999;-76
2023/03/21 11:54:18;;;;;;;27.92;14.15;;;17.20;99.90;;;;;;5045895;28;20029;-76
2023/03/21 11:57:07;;;;;;;22.20;12.23;;;17.40;99.90;;;;;;5047940;28;20026;-76
2023/03/21 11:59:41;;;;;;;17.25;11.30;;;17.60;99.90;;;;;;5052170;28;20086;-76
2023/03/21 12:02:27;;;;;;;26.70;12.68;;;17.70;99.90;;;;;;5054742;28;20025;-76
2023/03/21 12:05:18;;;;;;;31.25;13.55;;;17.60;99.90;;;;;;5055829;28;20021;-75
2023/03/21 12:08:23;;;;;;;34.78;14.13;;;17.50;99.90;;;;;;5055792;28;20067;-76
2023/03/21 12:11:24;;;;;;;21.55;11.90;;;17.50;99.90;;;;;;5044818;28;20036;-75
2023/03/21 12:14:07;;;;;;;30.60;12.52;;;17.60;99.90;;;;;;5055699;28;20024;-75
2023/03/21 12:17:01;;;;;;;22.85;11.38;;;17.50;99.90;;;;;;5055648;28;20047;-76
2023/03/21 12:19:33;;;;;;;22.40;12.23;;;17.50;99.90;;;;;;5055743;28;20102;-75
2023/03/21 12:22:12;;;;;;;34.75;12.95;;;17.60;99.90;;;;;;5055563;28;20025;-76
2023/03/21 12:24:56;;;;;;;22.75;11.38;;;17.60;99.90;;;;;;5048978;28;20045;-75
2023/03/21 12:28:07;;;;;;;25.65;11.38;;;17.90;99.90;;;;;;5035258;28;20029;-75
2023/03/21 12:30:45;;;;;;;36.05;13.73;;;18.00;99.90;;;;;;5035450;28;20029;-75
2023/03/21 12:33:29;;;;;;;37.45;13.35;;;18.10;99.90;;;;;;5035452;28;20395;-75
2023/03/21 12:36:26;;;;;;;37.38;13.30;;;18.00;99.90;;;;;;5052476;28;20086;-75
2023/03/21 12:39:15;;;;;;;30.05;13.85;;;18.00;99.90;;;;;;5045726;28;20397;-76
2023/03/21 12:41:55;;;;;;;31.52;14.50;;;18.00;99.90;;;;;;5054570;28;20033;-75
2023/03/21 12:44:23;;;;;;;32.97;15.23;;;17.70;99.90;;;;;;5048511;28;20102;-75
2023/03/21 12:46:58;;;;;;;26.25;14.15;;;17.70;99.90;;;;;;5047524;28;20029;-75
2023/03/21 12:49:34;;;;;;;33.20;15.82;;;17.80;99.90;;;;;;5055201;28;20410;-75
2023/03/21 12:52:10;;;;;;;23.77;11.63;;;17.90;99.90;;;;;;5054745;28;20017;-75
2023/03/21 12:54:50;;;;;;;28.40;13.10;;;18.00;99.90;;;;;;5055231;28;20055;-75
2023/03/21 12:57:36;;;;;;;29.73;13.32;;;17.90;99.90;;;;;;5054883;28;20029;-76
2023/03/21 13:00:12;;;;;;;33.95;13.93;;;18.10;99.90;;;;;;5045526;28;20029;-75
2023/03/21 13:03:02;;;;;;;22.60;12.40;;;18.10;99.90;;;;;;5054476;28;20031;-75